createdAt,value
2023-02-06T00:01:19.854Z,20.20
2023-02-06T00:03:53.393Z,15.82
2023-02-06T00:06:26.959Z,18.88
2023-02-06T00:09:00.590Z,14.70
2023-02-06T00:11:34.627Z,14.63
2023-02-06T00:14:08.271Z,19.52
2023-02-06T00:16:43.377Z,18.92
2023-02-06T00:19:17.006Z,16.27
2023-02-06T00:21:50.543Z,18.98
2023-02-06T00:24:24.188Z,24.05
2023-02-06T00:26:58.036Z,22.08
2023-02-06T00:29:31.638Z,30.50
2023-02-06T00:32:07.142Z,23.45
2023-02-06T00:34:40.644Z,16.38
2023-02-06T00:37:14.746Z,17.45
2023-02-06T00:39:48.395Z,16.52
2023-02-06T00:42:21.897Z,16.00
2023-02-06T00:44:55.434Z,15.70
2023-02-06T00:47:30.348Z,19.48
2023-02-06T00:50:03.985Z,13.52
2023-02-06T00:52:37.608Z,12.35
2023-02-06T00:55:11.379Z,11.82
2023-02-06T00:57:44.876Z,11.75
2023-02-06T01:00:20.929Z,9.52
2023-02-06T01:02:55.957Z,11.88
2023-02-06T01:05:30.832Z,9.02
2023-02-06T01:08:04.712Z,10.50
2023-02-06T01:10:38.350Z,14.57
2023-02-06T01:13:12.069Z,15.10
2023-02-06T01:15:50.117Z,14.02
2023-02-06T01:18:26.048Z,17.10
2023-02-06T01:20:59.652Z,20.88
2023-02-06T01:23:33.228Z,20.48
2023-02-06T01:26:07.742Z,19.65
2023-02-06T01:28:43.598Z,17.15
2023-02-06T01:31:18.556Z,13.65
2023-02-06T01:33:54.390Z,16.38
2023-02-06T01:36:28.501Z,14.15
2023-02-06T01:39:03.532Z,15.07
2023-02-06T01:41:37.244Z,14.05
2023-02-06T01:44:17.600Z,10.40
2023-02-06T01:46:53.219Z,14.90
2023-02-06T01:49:32.143Z,10.60
2023-02-06T01:52:13.745Z,19.33
2023-02-06T01:54:53.665Z,15.80
2023-02-06T01:57:28.518Z,22.20
2023-02-06T02:00:06.657Z,11.85
2023-02-06T02:02:50.247Z,10.70
2023-02-06T02:05:25.290Z,12.48
2023-02-06T02:08:03.141Z,10.93
2023-02-06T02:10:36.957Z,12.77
2023-02-06T02:13:11.034Z,13.27
2023-02-06T02:15:54.613Z,10.13
2023-02-06T02:18:43.274Z,16.60
2023-02-06T02:21:39.186Z,16.33
2023-02-06T02:24:20.003Z,19.73
2023-02-06T02:27:25.905Z,12.63
2023-02-06T02:30:31.519Z,16.58
2023-02-06T02:33:38.493Z,12.55
2023-02-06T02:36:20.676Z,10.70
2023-02-06T02:39:03.346Z,9.00
2023-02-06T02:41:46.350Z,13.38
2023-02-06T02:44:30.014Z,10.63
2023-02-06T02:47:08.477Z,11.70
2023-02-06T02:49:44.732Z,8.85
2023-02-06T02:52:20.622Z,10.32
2023-02-06T02:54:55.164Z,13.00
2023-02-06T02:57:32.895Z,13.10
2023-02-06T03:00:07.093Z,10.00
2023-02-06T03:02:42.619Z,11.98
2023-02-06T03:05:18.518Z,11.45
2023-02-06T03:08:08.614Z,12.13
2023-02-06T03:10:51.117Z,10.80
2023-02-06T03:13:30.655Z,12.00
2023-02-06T03:16:09.367Z,11.63
2023-02-06T03:18:47.543Z,12.63
2023-02-06T03:21:24.880Z,10.30
2023-02-06T03:24:04.753Z,13.38
2023-02-06T03:26:40.094Z,13.55
2023-02-06T03:29:18.855Z,10.60
2023-02-06T03:31:56.471Z,12.48
2023-02-06T03:34:36.386Z,13.20
2023-02-06T03:37:10.832Z,11.18
2023-02-06T03:39:45.967Z,14.60
2023-02-06T03:42:21.353Z,11.57
2023-02-06T03:45:00.741Z,10.63
2023-02-06T03:47:36.790Z,13.18
2023-02-06T03:50:13.159Z,11.52
2023-02-06T03:52:51.198Z,9.32
2023-02-06T03:55:26.713Z,8.40
2023-02-06T03:58:03.722Z,13.38
2023-02-06T04:00:38.854Z,11.38
2023-02-06T04:03:14.107Z,9.88
2023-02-06T04:05:47.878Z,12.18
2023-02-06T04:08:21.510Z,7.40
2023-02-06T04:10:56.475Z,11.75
2023-02-06T04:13:29.995Z,14.80
2023-02-06T04:16:04.308Z,16.08
2023-02-06T04:18:37.880Z,13.90
2023-02-06T04:21:11.435Z,13.45
2023-02-06T04:23:44.924Z,18.58
2023-02-06T04:26:19.824Z,14.55
2023-02-06T04:28:53.654Z,11.15
2023-02-06T04:31:27.261Z,10.50
2023-02-06T04:34:00.785Z,12.52
2023-02-06T04:36:34.491Z,11.73
2023-02-06T04:39:08.024Z,11.77
2023-02-06T04:41:42.916Z,16.50
2023-02-06T04:44:16.521Z,12.98
2023-02-06T04:46:50.305Z,18.67
2023-02-06T04:49:23.976Z,16.90
2023-02-06T04:51:57.444Z,19.67
2023-02-06T04:54:32.711Z,17.48
2023-02-06T04:57:07.683Z,17.02
2023-02-06T04:59:41.173Z,16.83
2023-02-06T05:02:14.784Z,17.73
2023-02-06T05:04:48.315Z,13.77
2023-02-06T05:07:21.846Z,16.17
2023-02-06T05:09:55.370Z,12.82
2023-02-06T05:12:30.373Z,12.90
2023-02-06T05:15:04.006Z,14.77
2023-02-06T05:17:38.131Z,14.02
2023-02-06T05:20:12.592Z,13.00
2023-02-06T05:22:46.189Z,13.32
2023-02-06T05:25:19.860Z,12.38
2023-02-06T05:27:54.856Z,12.32
2023-02-06T05:30:28.546Z,13.35
2023-02-06T05:33:02.403Z,9.65
2023-02-06T05:35:36.180Z,13.30
2023-02-06T05:38:09.850Z,16.58
2023-02-06T05:40:43.377Z,11.35
2023-02-06T05:43:18.241Z,13.63
2023-02-06T05:45:51.799Z,9.82
2023-02-06T05:48:25.468Z,12.13
2023-02-06T05:50:59.444Z,7.57
2023-02-06T05:53:33.124Z,12.15
2023-02-06T05:56:07.215Z,11.65
2023-02-06T05:58:42.221Z,12.40
2023-02-06T06:01:15.771Z,13.77
2023-02-06T06:03:49.382Z,12.27
2023-02-06T06:06:22.916Z,13.13
2023-02-06T06:08:56.523Z,13.50
2023-02-06T06:11:30.658Z,13.02
2023-02-06T06:14:05.644Z,12.90
2023-02-06T06:16:40.728Z,17.17
2023-02-06T06:19:14.260Z,17.42
2023-02-06T06:21:47.927Z,23.25
2023-02-06T06:24:21.491Z,16.65
2023-02-06T06:26:55.401Z,19.95
2023-02-06T06:29:30.600Z,28.98
2023-02-06T06:32:04.154Z,44.85
2023-02-06T06:34:37.762Z,30.13
2023-02-06T06:37:11.284Z,30.10
2023-02-06T06:39:44.764Z,26.58
2023-02-06T06:42:18.315Z,24.48
2023-02-06T06:44:53.216Z,30.40
2023-02-06T06:47:26.926Z,26.02
2023-02-06T06:50:00.562Z,22.08
2023-02-06T06:52:34.199Z,23.95
2023-02-06T06:55:08.346Z,32.33
2023-02-06T06:57:41.946Z,24.98
2023-02-06T07:00:17.978Z,22.35
2023-02-06T07:02:52.761Z,15.23
2023-02-06T07:05:26.654Z,18.17
2023-02-06T07:08:00.479Z,13.93
2023-02-06T07:10:34.025Z,14.88
2023-02-06T07:13:07.554Z,16.95
2023-02-06T07:15:42.501Z,14.43
2023-02-06T07:18:16.047Z,24.10
2023-02-06T07:20:51.494Z,11.30
2023-02-06T07:23:25.264Z,13.45
2023-02-06T07:26:02.398Z,16.45
2023-02-06T07:28:36.264Z,16.83
2023-02-06T07:31:11.568Z,14.07
2023-02-06T07:33:45.155Z,16.00
2023-02-06T07:36:19.617Z,12.88
2023-02-06T07:38:53.164Z,14.68
2023-02-06T07:41:26.706Z,11.68
2023-02-06T07:44:00.563Z,15.68
2023-02-06T07:46:35.742Z,20.15
2023-02-06T07:49:09.513Z,22.20
2023-02-06T07:51:43.044Z,19.58
2023-02-06T07:54:16.565Z,28.80
2023-02-06T07:56:50.075Z,19.45
2023-02-06T07:59:23.638Z,17.13
2023-02-06T08:01:58.676Z,18.85
2023-02-06T08:04:35.329Z,18.65
2023-02-06T08:07:10.003Z,19.90
2023-02-06T08:09:43.815Z,14.25
2023-02-06T08:12:17.320Z,12.85
2023-02-06T08:14:51.063Z,15.93
2023-02-06T08:17:26.191Z,20.85
2023-02-06T08:20:00.430Z,21.90
2023-02-06T08:22:34.278Z,18.40
2023-02-06T08:25:08.768Z,13.02
2023-02-06T08:27:42.939Z,21.30
2023-02-06T08:30:16.650Z,27.85
2023-02-06T08:32:51.751Z,27.70
2023-02-06T08:35:25.396Z,29.55
2023-02-06T08:38:00.908Z,22.48
2023-02-06T08:40:34.595Z,23.17
2023-02-06T08:43:08.143Z,21.52
2023-02-06T08:45:41.716Z,21.02
2023-02-06T08:48:16.779Z,17.10
2023-02-06T08:50:50.299Z,21.58
2023-02-06T08:53:23.805Z,21.42
2023-02-06T08:56:00.340Z,13.45
2023-02-06T08:58:34.546Z,21.00
2023-02-06T09:01:09.289Z,21.00
2023-02-06T09:03:44.562Z,20.83
2023-02-06T09:06:18.409Z,12.95
2023-02-06T09:08:52.063Z,21.90
2023-02-06T09:11:27.472Z,19.85
2023-02-06T09:14:02.883Z,18.33
2023-02-06T09:16:37.829Z,14.27
2023-02-06T09:19:13.511Z,11.55
2023-02-06T09:21:47.068Z,13.63
2023-02-06T09:24:20.657Z,13.70
2023-02-06T09:26:59.814Z,10.02
2023-02-06T09:29:34.487Z,8.25
2023-02-06T09:32:08.626Z,10.98
2023-02-06T09:34:43.727Z,13.35
2023-02-06T09:37:17.426Z,7.68
2023-02-06T09:39:51.090Z,12.25
2023-02-06T09:42:33.547Z,9.27
2023-02-06T09:47:47.581Z,15.77
2023-02-06T09:50:27.859Z,11.73
2023-02-06T09:53:16.763Z,8.95
2023-02-06T09:55:56.757Z,14.57
2023-02-06T09:58:40.836Z,14.25
2023-02-06T10:01:21.843Z,10.20
2023-02-06T10:04:14.008Z,9.88
2023-02-06T10:06:53.686Z,15.90
2023-02-06T10:09:36.213Z,8.55
2023-02-06T10:14:52.839Z,12.55
2023-02-06T10:17:29.283Z,12.77
2023-02-06T10:20:07.210Z,9.98
2023-02-06T10:22:48.895Z,20.02
2023-02-06T10:25:28.267Z,12.53
2023-02-06T10:28:09.701Z,13.65
2023-02-06T10:31:10.222Z,10.50
2023-02-06T10:33:51.705Z,16.00
2023-02-06T10:36:41.586Z,19.13
2023-02-06T10:39:56.898Z,60.85
2023-02-06T10:42:42.560Z,35.60
2023-02-06T10:45:29.784Z,11.75
2023-02-06T10:48:11.784Z,19.80
2023-02-06T10:50:48.868Z,23.48
2023-02-06T10:53:27.903Z,13.18
2023-02-06T10:56:06.913Z,14.13
2023-02-06T10:58:43.875Z,13.13
2023-02-06T11:01:25.945Z,12.93
2023-02-06T11:04:05.958Z,16.30
2023-02-06T11:06:42.539Z,12.00
2023-02-06T11:09:16.771Z,12.65
2023-02-06T11:11:54.664Z,14.18
2023-02-06T11:14:31.766Z,12.00
2023-02-06T11:17:05.674Z,19.77
2023-02-06T11:19:44.312Z,19.13
2023-02-06T11:22:27.544Z,12.27
2023-02-06T11:25:05.253Z,14.68
2023-02-06T11:27:44.364Z,15.82
2023-02-06T11:30:32.318Z,17.35
2023-02-06T11:33:08.318Z,12.20
2023-02-06T11:35:50.570Z,13.45
2023-02-06T11:38:27.888Z,14.00
2023-02-06T11:41:03.656Z,12.23
2023-02-06T11:43:50.590Z,16.48
2023-02-06T11:46:27.350Z,14.90
2023-02-06T11:49:27.202Z,17.92
2023-02-06T11:52:03.782Z,22.83
2023-02-06T11:54:37.621Z,15.57
2023-02-06T11:57:22.138Z,20.23
2023-02-06T11:59:59.284Z,18.70
2023-02-06T12:02:34.782Z,21.73
2023-02-06T12:05:14.242Z,13.80
2023-02-06T12:07:53.209Z,13.70
2023-02-06T12:10:27.876Z,20.95
2023-02-06T12:13:05.728Z,17.02
2023-02-06T12:15:47.856Z,13.07
2023-02-06T12:21:04.489Z,15.82
2023-02-06T12:23:42.217Z,13.63
2023-02-06T12:26:19.741Z,12.95
2023-02-06T12:28:59.716Z,14.15
2023-02-06T12:31:40.110Z,13.88
2023-02-06T12:34:18.419Z,15.60
2023-02-06T12:37:00.472Z,20.20
2023-02-06T12:39:34.555Z,12.70
2023-02-06T12:42:33.155Z,10.18
2023-02-06T12:45:15.561Z,16.58
2023-02-06T12:47:55.523Z,14.13
2023-02-06T12:50:33.812Z,14.25
2023-02-06T12:53:16.425Z,12.10
2023-02-06T12:55:58.105Z,13.57
2023-02-06T12:58:46.058Z,14.65
2023-02-06T13:01:33.839Z,12.35
2023-02-06T13:04:14.243Z,13.25
2023-02-06T13:06:53.878Z,13.13
2023-02-06T13:09:30.156Z,11.48
2023-02-06T13:12:15.053Z,15.80
2023-02-06T13:14:50.840Z,56.13
2023-02-06T13:17:26.211Z,17.63
2023-02-06T13:20:06.942Z,15.85
2023-02-06T13:22:44.909Z,13.48
2023-02-06T13:25:51.973Z,13.52
2023-02-06T13:28:46.820Z,16.42
2023-02-06T13:31:27.025Z,17.73
2023-02-06T13:34:03.359Z,13.52
2023-02-06T13:36:50.958Z,14.80
2023-02-06T13:39:34.213Z,17.85
2023-02-06T13:42:35.446Z,13.25
2023-02-06T13:45:20.268Z,13.85
2023-02-06T13:48:38.922Z,18.27
2023-02-06T13:51:45.328Z,12.70
2023-02-06T13:54:48.605Z,11.80
2023-02-06T13:57:33.568Z,11.73
2023-02-06T14:00:15.199Z,16.15
2023-02-06T14:02:51.848Z,13.63
2023-02-06T14:05:47.427Z,11.82
2023-02-06T14:08:26.883Z,16.42
2023-02-06T14:11:26.601Z,10.85
2023-02-06T14:14:28.439Z,14.50
2023-02-06T14:17:12.270Z,13.07
2023-02-06T14:19:53.203Z,17.48
2023-02-06T14:22:35.069Z,23.48
2023-02-06T14:25:26.853Z,22.85
2023-02-06T14:28:13.138Z,15.45
2023-02-06T14:30:55.074Z,16.70
2023-02-06T14:33:52.101Z,15.38
2023-02-06T14:36:49.568Z,55.13
2023-02-06T14:39:48.054Z,24.70
2023-02-06T14:42:25.493Z,17.92
2023-02-06T14:45:03.952Z,21.83
2023-02-06T14:47:42.784Z,19.80
2023-02-06T14:50:20.623Z,17.48
2023-02-06T14:52:58.154Z,31.25
2023-02-06T14:55:34.513Z,21.48
2023-02-06T14:58:19.497Z,16.98
2023-02-06T15:00:54.943Z,16.40
2023-02-06T15:03:28.974Z,20.38
2023-02-06T15:06:06.129Z,26.85
2023-02-06T15:08:40.576Z,21.55
2023-02-06T15:11:23.093Z,21.20
2023-02-06T15:13:57.819Z,22.52
2023-02-06T15:16:45.747Z,15.63
2023-02-06T15:19:21.801Z,31.17
2023-02-06T15:22:00.761Z,34.20
2023-02-06T15:24:50.121Z,24.95
2023-02-06T15:27:29.611Z,26.35
2023-02-06T15:30:13.419Z,24.63
2023-02-06T15:32:51.878Z,26.52
2023-02-06T15:35:27.941Z,28.92
2023-02-06T15:38:05.815Z,24.33
2023-02-06T15:40:42.333Z,19.42
2023-02-06T15:43:20.094Z,35.45
2023-02-06T15:45:56.274Z,27.50
2023-02-06T15:48:35.946Z,43.92
2023-02-06T15:51:21.392Z,41.40
2023-02-06T15:54:08.096Z,23.92
2023-02-06T15:56:43.681Z,31.90
2023-02-06T15:59:21.690Z,25.35
2023-02-06T16:01:57.849Z,23.27
2023-02-06T16:04:36.404Z,27.15
2023-02-06T16:07:17.467Z,25.25
2023-02-06T16:09:55.380Z,27.60
2023-02-06T16:12:35.055Z,31.45
2023-02-06T16:15:27.080Z,36.55
2023-02-06T16:18:03.934Z,30.02
2023-02-06T16:20:42.892Z,14.48
2023-02-06T16:23:26.277Z,20.17
2023-02-06T16:26:08.567Z,21.50
2023-02-06T16:28:47.441Z,19.10
2023-02-06T16:31:21.413Z,27.08
2023-02-06T16:34:03.142Z,21.45
2023-02-06T16:36:38.199Z,13.13
2023-02-06T16:39:11.980Z,16.88
2023-02-06T16:41:52.074Z,21.88
2023-02-06T16:44:42.965Z,180.93
2023-02-06T16:47:20.530Z,79.07
2023-02-06T16:49:54.565Z,72.13
2023-02-06T16:52:33.380Z,55.05
2023-02-06T16:55:07.678Z,47.05
2023-02-06T16:57:45.020Z,159.15
2023-02-06T17:00:21.325Z,315.48
2023-02-06T17:02:55.923Z,150.10
2023-02-06T17:05:31.577Z,247.32
2023-02-06T17:08:15.762Z,80.97
2023-02-06T17:10:52.900Z,38.25
2023-02-06T17:13:26.406Z,74.35
2023-02-06T17:16:00.112Z,59.67
2023-02-06T17:18:33.888Z,65.75
2023-02-06T17:21:07.624Z,58.35
2023-02-06T17:23:42.611Z,46.38
2023-02-06T17:26:18.294Z,41.80
2023-02-06T17:28:52.700Z,39.25
2023-02-06T17:31:26.334Z,38.35
2023-02-06T17:34:00.480Z,42.60
2023-02-06T17:36:39.606Z,39.60
2023-02-06T17:39:14.966Z,64.65
2023-02-06T17:41:48.739Z,68.13
2023-02-06T17:44:22.613Z,49.97
2023-02-06T17:46:56.151Z,50.45
2023-02-06T17:49:29.793Z,40.70
2023-02-06T17:52:03.350Z,35.72
2023-02-06T17:54:38.340Z,38.78
2023-02-06T17:57:13.374Z,42.47
2023-02-06T17:59:46.977Z,47.53
2023-02-06T18:02:20.614Z,45.78
2023-02-06T18:04:54.713Z,68.32
2023-02-06T18:07:28.553Z,82.45
2023-02-06T18:10:03.490Z,60.75
2023-02-06T18:12:37.110Z,63.03
2023-02-06T18:15:13.710Z,39.78
2023-02-06T18:17:47.262Z,50.92
2023-02-06T18:20:20.875Z,78.97
2023-02-06T18:22:54.392Z,95.15
2023-02-06T18:25:29.339Z,57.10
2023-02-06T18:28:02.964Z,87.28
2023-02-06T18:30:36.990Z,81.78
2023-02-06T18:33:12.782Z,92.70
2023-02-06T18:35:46.807Z,89.15
2023-02-06T18:38:20.747Z,68.25
2023-02-06T18:40:55.802Z,78.20
2023-02-06T18:43:28.497Z,76.50
2023-02-06T18:46:07.738Z,70.45
2023-02-06T18:48:41.240Z,109.85
2023-02-06T18:51:14.824Z,100.70
2023-02-06T18:53:48.435Z,109.68
2023-02-06T18:56:23.360Z,109.63
2023-02-06T18:58:57.556Z,59.67
2023-02-06T19:01:31.719Z,49.03
2023-02-06T19:04:06.304Z,50.55
2023-02-06T19:06:42.184Z,56.17
2023-02-06T19:09:16.433Z,91.63
2023-02-06T19:11:51.456Z,100.05
2023-02-06T19:14:27.214Z,93.25
2023-02-06T19:17:00.907Z,72.07
2023-02-06T19:19:34.469Z,47.47
2023-02-06T19:22:08.070Z,48.75
2023-02-06T19:24:42.546Z,65.10
2023-02-06T19:27:18.049Z,64.55
2023-02-06T19:29:51.765Z,51.53
2023-02-06T19:32:28.628Z,44.85
2023-02-06T19:35:02.211Z,60.60
2023-02-06T19:37:35.726Z,85.45
2023-02-06T19:40:09.756Z,112.50
2023-02-06T19:42:44.693Z,94.57
2023-02-06T19:45:18.367Z,94.50
2023-02-06T19:47:51.997Z,117.90
2023-02-06T19:50:25.541Z,81.45
2023-02-06T19:52:59.028Z,98.60
2023-02-06T19:55:32.981Z,66.63
2023-02-06T19:58:07.937Z,79.32
2023-02-06T20:00:41.577Z,89.65
2023-02-06T20:03:15.192Z,115.55
2023-02-06T20:05:48.793Z,92.88
2023-02-06T20:08:22.365Z,139.43
2023-02-06T20:10:56.008Z,126.88
2023-02-06T20:13:31.429Z,159.18
2023-02-06T20:16:07.146Z,152.98
2023-02-06T20:18:41.230Z,141.18
2023-02-06T20:21:26.744Z,128.70
2023-02-06T20:24:03.661Z,153.38
2023-02-06T20:26:40.079Z,184.13
2023-02-06T20:29:21.775Z,196.45
2023-02-06T20:31:56.344Z,208.15
2023-02-06T20:34:31.120Z,214.38
2023-02-06T20:37:05.271Z,243.75
2023-02-06T20:39:39.298Z,253.27
2023-02-06T20:42:13.029Z,174.63
2023-02-06T20:44:49.488Z,198.80
2023-02-06T20:47:23.114Z,316.45
2023-02-06T20:50:00.454Z,359.05
2023-02-06T20:52:35.219Z,240.00
2023-02-06T20:55:09.157Z,253.98
2023-02-06T20:57:43.373Z,254.10
2023-02-06T21:00:19.390Z,246.75
2023-02-06T21:02:53.401Z,230.95
2023-02-06T21:05:27.111Z,228.55
2023-02-06T21:08:00.649Z,220.27
2023-02-06T21:10:35.038Z,194.43
2023-02-06T21:13:08.628Z,186.15
2023-02-06T21:15:43.844Z,207.13
2023-02-06T21:18:17.840Z,194.95
2023-02-06T21:20:51.721Z,227.93
2023-02-06T21:23:25.757Z,200.80
2023-02-06T21:25:59.284Z,183.52
2023-02-06T21:28:33.804Z,214.10
2023-02-06T21:31:10.661Z,184.98
2023-02-06T21:33:46.127Z,201.75
2023-02-06T21:36:21.270Z,191.07
2023-02-06T21:38:54.892Z,198.38
2023-02-06T21:41:29.343Z,201.95
2023-02-06T21:44:03.267Z,216.90
2023-02-06T21:46:38.393Z,222.63
2023-02-06T21:49:11.928Z,237.95
2023-02-06T21:51:45.856Z,201.35
2023-02-06T21:54:19.692Z,250.40
2023-02-06T21:56:53.557Z,187.93
2023-02-06T21:59:27.341Z,209.02
2023-02-06T22:02:02.461Z,211.00
2023-02-06T22:04:36.165Z,209.77
2023-02-06T22:07:11.691Z,206.32
2023-02-06T22:09:45.471Z,202.82
2023-02-06T22:12:19.229Z,152.98
2023-02-06T22:14:53.082Z,184.30
2023-02-06T22:17:30.348Z,159.98
2023-02-06T22:20:03.931Z,229.00
2023-02-06T22:22:38.745Z,201.57
2023-02-06T22:25:12.814Z,250.20
2023-02-06T22:27:46.397Z,205.60
2023-02-06T22:30:20.168Z,150.13
2023-02-06T22:32:55.076Z,196.25
2023-02-06T22:35:28.759Z,179.32
2023-02-06T22:38:02.319Z,179.30
2023-02-06T22:40:35.938Z,154.23
2023-02-06T22:43:09.472Z,149.88
2023-02-06T22:45:43.326Z,159.43
2023-02-06T22:48:18.888Z,176.82
2023-02-06T22:50:53.645Z,227.70
2023-02-06T22:53:33.102Z,203.77
2023-02-06T22:56:33.597Z,212.07
2023-02-06T22:59:10.329Z,223.20
2023-02-06T23:01:45.395Z,229.40
2023-02-06T23:04:22.210Z,220.05
2023-02-06T23:06:55.928Z,199.63
2023-02-06T23:09:31.010Z,190.40
2023-02-06T23:12:05.144Z,201.30
2023-02-06T23:14:38.720Z,172.48
2023-02-06T23:17:12.526Z,211.63
2023-02-06T23:19:47.591Z,210.93
2023-02-06T23:22:21.154Z,209.20
2023-02-06T23:24:54.699Z,198.88
2023-02-06T23:27:29.340Z,198.57
2023-02-06T23:30:02.870Z,194.73
2023-02-06T23:32:36.375Z,191.60
2023-02-06T23:35:11.587Z,169.98
2023-02-06T23:37:45.237Z,168.40
2023-02-06T23:40:18.810Z,168.15
2023-02-06T23:42:52.320Z,156.27
2023-02-06T23:45:26.280Z,165.95
2023-02-06T23:47:59.921Z,187.75
2023-02-06T23:50:34.940Z,162.10
2023-02-06T23:53:08.442Z,169.18
2023-02-06T23:55:42.040Z,154.65
2023-02-06T23:58:16.243Z,203.90
